createdAt,value
2019-05-22T00:02:33.209Z,90.30
2019-05-22T00:05:09.791Z,90.10
2019-05-22T00:07:38.006Z,90.10
2019-05-22T00:10:07.552Z,90.10
2019-05-22T00:12:46.275Z,89.90
2019-05-22T00:15:04.517Z,89.90
2019-05-22T00:17:32.800Z,90.30
2019-05-22T00:20:00.581Z,90.40
2019-05-22T00:22:32.914Z,90.20
2019-05-22T00:25:01.028Z,89.80
2019-05-22T00:27:30.241Z,89.80
2019-05-22T00:29:59.984Z,89.70
2019-05-22T00:32:29.176Z,89.90
2019-05-22T00:34:56.279Z,89.70
2019-05-22T00:37:23.547Z,89.80
2019-05-22T00:39:51.046Z,89.70
2019-05-22T00:42:20.181Z,90.00
2019-05-22T00:44:48.192Z,90.10
2019-05-22T00:47:16.987Z,89.90
2019-05-22T00:49:47.842Z,90.20
2019-05-22T00:52:38.779Z,90.00
2019-05-22T00:55:24.823Z,89.80
2019-05-22T00:58:13.239Z,89.70
2019-05-22T01:00:49.784Z,89.60
2019-05-22T01:03:20.460Z,89.90
2019-05-22T01:05:48.263Z,89.70
2019-05-22T01:08:16.754Z,89.80
2019-05-22T01:10:50.331Z,89.50
2019-05-22T01:13:20.332Z,89.70
2019-05-22T01:15:47.776Z,89.30
2019-05-22T01:18:16.032Z,89.60
2019-05-22T01:20:45.860Z,89.20
2019-05-22T01:23:17.875Z,89.40
2019-05-22T01:25:45.255Z,89.40
2019-05-22T01:28:33.702Z,89.60
2019-05-22T01:31:20.032Z,89.60
2019-05-22T01:33:52.775Z,89.60
2019-05-22T01:36:25.423Z,89.90
2019-05-22T01:38:57.461Z,89.70
2019-05-22T01:41:27.735Z,89.80
2019-05-22T01:43:56.634Z,89.50
2019-05-22T01:46:24.916Z,89.60
2019-05-22T01:48:55.692Z,89.20
2019-05-22T01:51:24.573Z,89.20
2019-05-22T01:53:53.414Z,89.40
2019-05-22T01:56:20.675Z,89.80
2019-05-22T01:58:50.032Z,89.60
2019-05-22T02:01:21.487Z,90.10
2019-05-22T02:03:50.932Z,89.70
2019-05-22T02:06:22.539Z,89.90
2019-05-22T02:09:02.467Z,89.60
2019-05-22T02:11:32.719Z,89.80
2019-05-22T02:14:11.028Z,89.80
2019-05-22T02:16:55.971Z,90.00
2019-05-22T02:19:13.986Z,90.00
2019-05-22T02:21:42.065Z,90.00
2019-05-22T02:24:11.172Z,90.00
2019-05-22T02:26:41.849Z,90.10
2019-05-22T02:29:10.950Z,90.10
2019-05-22T02:31:40.552Z,90.00
2019-05-22T02:34:08.937Z,90.00
2019-05-22T02:36:38.052Z,90.20
2019-05-22T02:39:09.830Z,90.10
2019-05-22T02:41:45.142Z,89.80
2019-05-22T02:44:13.299Z,90.00
2019-05-22T02:46:40.607Z,89.90
2019-05-22T02:49:09.993Z,90.20
2019-05-22T02:51:37.421Z,90.20
2019-05-22T02:54:06.431Z,90.30
2019-05-22T02:56:35.429Z,89.90
2019-05-22T02:59:06.297Z,89.90
2019-05-22T03:01:34.411Z,89.90
2019-05-22T03:04:04.882Z,89.70
2019-05-22T03:06:45.049Z,89.40
2019-05-22T03:09:22.862Z,89.20
2019-05-22T03:11:57.027Z,89.10
2019-05-22T03:14:26.423Z,88.70
2019-05-22T03:16:57.431Z,88.80
2019-05-22T03:19:38.094Z,89.10
2019-05-22T03:22:19.872Z,89.50
2019-05-22T03:24:46.876Z,89.90
2019-05-22T03:27:19.011Z,90.10
2019-05-22T03:29:53.941Z,90.30
2019-05-22T03:32:21.198Z,90.20
2019-05-22T03:34:48.470Z,90.10
2019-05-22T03:37:15.507Z,90.40
2019-05-22T03:39:44.285Z,90.20
2019-05-22T03:42:13.174Z,90.50
2019-05-22T03:44:41.444Z,90.40
2019-05-22T03:47:10.830Z,90.80
2019-05-22T03:49:38.520Z,90.70
2019-05-22T03:52:06.358Z,90.70
2019-05-22T03:54:35.500Z,90.80
2019-05-22T03:57:03.435Z,90.60
2019-05-22T03:59:31.504Z,90.70
2019-05-22T04:01:59.019Z,90.70
2019-05-22T04:04:35.624Z,90.70
2019-05-22T04:07:05.908Z,90.70
2019-05-22T04:09:33.855Z,90.70
2019-05-22T04:12:03.563Z,90.80
2019-05-22T04:14:35.209Z,90.90
2019-05-22T04:17:03.289Z,90.70
2019-05-22T04:19:47.462Z,90.80
2019-05-22T04:22:00.010Z,90.60
2019-05-22T04:24:28.035Z,90.90
2019-05-22T04:26:56.306Z,90.80
2019-05-22T04:29:24.793Z,90.40
2019-05-22T04:32:06.295Z,90.10
2019-05-22T04:34:33.671Z,89.90
2019-05-22T04:37:01.342Z,89.90
2019-05-22T04:39:31.641Z,90.10
2019-05-22T04:42:00.220Z,90.30
2019-05-22T04:44:27.694Z,90.50
2019-05-22T04:46:54.992Z,90.40
2019-05-22T04:49:21.851Z,90.30
2019-05-22T04:51:50.759Z,90.40
2019-05-22T04:54:17.743Z,90.60
2019-05-22T04:56:45.920Z,90.60
2019-05-22T04:59:14.378Z,90.70
2019-05-22T05:01:42.388Z,90.90
2019-05-22T05:04:10.276Z,91.10
2019-05-22T05:06:38.866Z,91.40
2019-05-22T05:09:08.711Z,91.40
2019-05-22T05:11:36.363Z,91.60
2019-05-22T05:14:03.839Z,91.60
2019-05-22T05:16:31.209Z,91.50
2019-05-22T05:18:58.449Z,91.70
2019-05-22T05:21:26.075Z,91.70
2019-05-22T05:23:53.564Z,91.70
2019-05-22T05:26:22.115Z,91.50
2019-05-22T05:28:50.052Z,91.60
2019-05-22T05:31:18.599Z,91.60
2019-05-22T05:34:01.360Z,91.60
2019-05-22T05:36:28.654Z,91.80
2019-05-22T05:38:56.694Z,90.80
2019-05-22T05:41:23.642Z,90.70
2019-05-22T05:43:51.321Z,90.40
2019-05-22T05:46:18.983Z,90.20
2019-05-22T05:48:47.091Z,89.80
2019-05-22T05:51:24.856Z,89.90
2019-05-22T05:54:00.813Z,89.50
2019-05-22T05:56:29.715Z,88.90
2019-05-22T05:58:57.953Z,89.10
2019-05-22T06:01:41.142Z,88.80
2019-05-22T06:04:10.455Z,88.70
2019-05-22T06:07:10.677Z,88.30
2019-05-22T06:09:39.671Z,87.80
2019-05-22T06:12:08.676Z,87.50
2019-05-22T06:14:38.032Z,86.90
2019-05-22T06:17:56.728Z,87.10
2019-05-22T06:20:26.806Z,86.30
2019-05-22T06:23:49.632Z,85.90
2019-05-22T06:27:01.973Z,86.40
2019-05-22T06:29:42.787Z,86.30
2019-05-22T06:32:58.333Z,86.40
2019-05-22T06:35:31.081Z,85.70
2019-05-22T06:38:09.643Z,85.30
2019-05-22T06:40:37.199Z,85.30
2019-05-22T06:43:58.692Z,84.90
2019-05-22T06:46:51.291Z,84.30
2019-05-22T06:49:44.638Z,83.70
2019-05-22T06:52:14.996Z,82.30
2019-05-22T06:54:43.000Z,81.80
2019-05-22T06:57:14.472Z,81.50
2019-05-22T06:59:44.182Z,81.50
2019-05-22T07:02:15.395Z,79.80
2019-05-22T07:04:46.570Z,80.00
2019-05-22T07:07:14.765Z,79.20
2019-05-22T07:09:44.217Z,78.20
2019-05-22T07:12:14.380Z,78.30
2019-05-22T07:15:17.671Z,78.60
2019-05-22T07:17:45.852Z,78.10
2019-05-22T07:20:14.784Z,78.80
2019-05-22T07:22:43.181Z,77.80
2019-05-22T07:25:11.324Z,76.80
2019-05-22T07:27:39.158Z,77.50
2019-05-22T07:30:08.895Z,77.50
2019-05-22T07:32:36.496Z,76.80
2019-05-22T07:35:04.847Z,75.60
2019-05-22T07:37:34.585Z,75.70
2019-05-22T07:40:02.640Z,76.40
2019-05-22T07:42:29.936Z,76.60
2019-05-22T07:44:57.149Z,75.90
2019-05-22T07:47:25.391Z,76.90
2019-05-22T07:49:53.015Z,76.30
2019-05-22T07:52:20.097Z,76.90
2019-05-22T07:54:48.081Z,76.40
2019-05-22T07:57:20.205Z,76.20
2019-05-22T08:00:09.335Z,74.70
2019-05-22T08:02:42.772Z,74.10
2019-05-22T08:05:10.462Z,73.10
2019-05-22T08:07:39.873Z,70.90
2019-05-22T08:10:12.405Z,69.40
2019-05-22T08:12:41.091Z,70.10
2019-05-22T08:15:09.155Z,70.10
2019-05-22T08:17:38.333Z,70.40
2019-05-22T08:20:06.583Z,71.50
2019-05-22T08:22:34.418Z,71.70
2019-05-22T08:25:05.235Z,70.80
2019-05-22T08:27:33.003Z,71.80
2019-05-22T08:30:00.886Z,73.10
2019-05-22T08:32:29.415Z,74.60
2019-05-22T08:34:56.662Z,75.20
2019-05-22T08:37:28.914Z,75.00
2019-05-22T08:39:57.364Z,75.30
2019-05-22T08:42:25.382Z,74.90
2019-05-22T08:44:53.384Z,74.50
2019-05-22T08:47:21.713Z,75.00
2019-05-22T08:49:50.488Z,75.00
2019-05-22T08:52:23.705Z,75.80
2019-05-22T08:54:48.767Z,74.70
2019-05-22T08:57:21.043Z,74.70
2019-05-22T08:59:48.507Z,75.00
2019-05-22T09:02:17.818Z,73.90
2019-05-22T09:04:45.009Z,71.90
2019-05-22T09:07:12.502Z,72.90
2019-05-22T09:09:39.700Z,72.00
2019-05-22T09:12:08.456Z,71.80
2019-05-22T09:14:35.769Z,71.10
2019-05-22T09:17:05.168Z,70.80
2019-05-22T09:19:32.302Z,70.10
2019-05-22T09:22:00.342Z,70.30
2019-05-22T09:24:28.271Z,70.10
2019-05-22T09:26:55.844Z,70.10
2019-05-22T09:29:23.549Z,70.40
2019-05-22T09:31:51.440Z,69.20
2019-05-22T09:34:18.861Z,70.60
2019-05-22T09:36:46.265Z,70.00
2019-05-22T09:39:15.144Z,71.20
2019-05-22T09:41:42.846Z,71.90
2019-05-22T09:44:10.068Z,72.40
2019-05-22T09:46:37.577Z,73.00
2019-05-22T09:49:06.083Z,72.70
2019-05-22T09:51:33.672Z,73.30
2019-05-22T09:54:01.383Z,73.10
2019-05-22T09:56:28.564Z,72.70
2019-05-22T09:58:56.073Z,72.40
2019-05-22T10:01:23.432Z,72.70
2019-05-22T10:03:51.486Z,70.70
2019-05-22T10:06:21.633Z,72.30
2019-05-22T10:08:48.676Z,72.10
2019-05-22T10:11:16.531Z,72.40
2019-05-22T10:13:44.159Z,71.40
2019-05-22T10:16:12.169Z,70.30
2019-05-22T10:18:39.861Z,70.00
2019-05-22T10:21:07.888Z,68.70
2019-05-22T10:23:35.158Z,67.00
2019-05-22T10:26:03.921Z,68.50
2019-05-22T10:28:31.692Z,66.00
2019-05-22T10:30:59.567Z,65.50
2019-05-22T10:33:28.324Z,65.50
2019-05-22T10:35:56.443Z,64.70
2019-05-22T10:38:23.637Z,62.70
2019-05-22T10:40:51.009Z,60.60
2019-05-22T10:43:18.742Z,59.70
2019-05-22T10:45:46.440Z,60.30
2019-05-22T10:48:14.347Z,59.30
2019-05-22T10:50:41.439Z,58.70
2019-05-22T10:53:09.318Z,57.20
2019-05-22T10:55:37.149Z,56.00
2019-05-22T10:58:05.882Z,52.60
2019-05-22T11:00:33.784Z,51.30
2019-05-22T11:03:05.546Z,51.40
2019-05-22T11:05:33.916Z,50.60
2019-05-22T11:08:01.469Z,48.80
2019-05-22T11:10:29.410Z,48.60
2019-05-22T11:12:57.347Z,48.90
2019-05-22T11:15:25.514Z,49.50
2019-05-22T11:17:53.808Z,49.00
2019-05-22T11:20:22.986Z,50.40
2019-05-22T11:22:50.775Z,50.30
2019-05-22T11:25:18.466Z,48.70
2019-05-22T11:27:45.789Z,48.30
2019-05-22T11:30:14.695Z,47.50
2019-05-22T11:32:41.896Z,48.20
2019-05-22T11:35:09.689Z,46.90
2019-05-22T11:37:37.714Z,46.70
2019-05-22T11:40:07.035Z,46.50
2019-05-22T11:42:34.331Z,47.60
2019-05-22T11:45:01.700Z,49.00
2019-05-22T11:47:31.193Z,49.70
2019-05-22T11:49:59.934Z,50.10
2019-05-22T11:52:28.298Z,50.70
2019-05-22T11:54:55.616Z,49.10
2019-05-22T11:57:23.827Z,45.80
2019-05-22T11:59:53.470Z,45.60
2019-05-22T12:02:24.426Z,44.40
2019-05-22T12:04:52.927Z,42.90
2019-05-22T12:07:20.651Z,43.00
2019-05-22T12:09:49.433Z,44.20
2019-05-22T12:12:18.292Z,44.60
2019-05-22T12:14:46.053Z,45.00
2019-05-22T12:17:15.146Z,46.00
2019-05-22T12:19:42.521Z,45.80
2019-05-22T12:22:10.110Z,43.80
2019-05-22T12:24:37.898Z,44.80
2019-05-22T12:27:06.443Z,42.90
2019-05-22T12:29:34.815Z,42.50
2019-05-22T12:32:02.841Z,41.90
2019-05-22T12:34:30.262Z,41.60
2019-05-22T12:36:58.602Z,42.40
2019-05-22T12:39:27.216Z,41.90
2019-05-22T12:41:56.880Z,40.40
2019-05-22T12:44:24.720Z,41.00
2019-05-22T12:46:52.432Z,40.30
2019-05-22T12:49:19.730Z,39.80
2019-05-22T12:51:49.823Z,39.50
2019-05-22T12:54:21.007Z,39.90
2019-05-22T12:56:48.926Z,39.50
2019-05-22T12:59:16.562Z,39.20
2019-05-22T13:01:46.694Z,38.60
2019-05-22T13:04:16.019Z,38.30
2019-05-22T13:06:44.886Z,37.30
2019-05-22T13:09:12.585Z,36.70
2019-05-22T13:11:41.307Z,36.30
2019-05-22T13:14:09.634Z,35.70
2019-05-22T13:16:37.827Z,36.00
2019-05-22T13:19:06.296Z,35.70
2019-05-22T13:21:40.963Z,35.00
2019-05-22T13:24:21.400Z,35.60
2019-05-22T13:26:50.581Z,35.10
2019-05-22T13:29:22.504Z,35.30
2019-05-22T13:31:51.953Z,34.90
2019-05-22T13:34:23.600Z,35.30
2019-05-22T13:36:52.037Z,35.00
2019-05-22T13:39:21.744Z,35.40
2019-05-22T13:41:49.531Z,34.50
2019-05-22T13:44:17.930Z,35.50
2019-05-22T13:46:45.563Z,35.60
2019-05-22T13:49:14.090Z,35.90
2019-05-22T13:51:41.817Z,35.30
2019-05-22T13:54:09.869Z,35.50
2019-05-22T13:56:37.889Z,36.00
2019-05-22T13:59:06.816Z,36.70
2019-05-22T14:01:34.294Z,35.30
2019-05-22T14:04:02.832Z,35.80
2019-05-22T14:06:30.276Z,34.70
2019-05-22T14:09:02.608Z,35.00
2019-05-22T14:11:31.454Z,34.80
2019-05-22T14:13:59.155Z,35.50
2019-05-22T14:16:26.414Z,36.00
2019-05-22T14:18:53.997Z,35.60
2019-05-22T14:21:21.248Z,36.30
2019-05-22T14:23:48.704Z,36.00
2019-05-22T14:26:16.319Z,36.60
2019-05-22T14:28:44.270Z,36.40
2019-05-22T14:31:11.885Z,35.00
2019-05-22T14:33:40.792Z,34.90
2019-05-22T14:36:09.567Z,34.50
2019-05-22T14:38:36.915Z,34.80
2019-05-22T14:41:19.138Z,33.60
2019-05-22T14:43:47.057Z,33.60
2019-05-22T14:46:14.245Z,33.70
2019-05-22T14:48:41.487Z,33.30
2019-05-22T14:51:09.152Z,33.20
2019-05-22T14:53:37.584Z,34.80
2019-05-22T14:56:05.129Z,34.80
2019-05-22T14:58:34.493Z,36.40
2019-05-22T15:01:02.968Z,36.60
2019-05-22T15:03:30.808Z,38.70
2019-05-22T15:05:58.633Z,38.30
2019-05-22T15:08:26.318Z,39.40
2019-05-22T15:10:54.307Z,41.10
2019-05-22T15:13:22.501Z,41.00
2019-05-22T15:15:53.235Z,39.80
2019-05-22T15:18:24.192Z,38.90
2019-05-22T15:21:00.999Z,40.20
2019-05-22T15:23:33.214Z,40.60
2019-05-22T15:26:01.619Z,39.10
2019-05-22T15:28:48.589Z,39.80
2019-05-22T15:31:17.020Z,40.10
2019-05-22T15:33:46.806Z,41.30
2019-05-22T15:36:25.753Z,41.30
2019-05-22T15:38:53.981Z,41.00
2019-05-22T15:41:23.223Z,40.20
2019-05-22T15:43:55.798Z,39.00
2019-05-22T15:46:31.869Z,38.80
2019-05-22T15:49:18.404Z,37.80
2019-05-22T15:51:50.064Z,38.20
2019-05-22T15:54:38.394Z,37.90
2019-05-22T15:57:10.813Z,37.50
2019-05-22T15:59:49.611Z,37.70
2019-05-22T16:02:32.760Z,38.20
2019-05-22T16:05:09.125Z,39.50
2019-05-22T16:10:34.779Z,40.40
2019-05-22T16:13:03.718Z,39.10
2019-05-22T16:15:32.769Z,40.10
2019-05-22T16:18:10.997Z,39.70
2019-05-22T16:20:31.631Z,40.30
2019-05-22T16:22:59.301Z,40.80
2019-05-22T16:25:28.140Z,41.20
2019-05-22T16:27:55.595Z,41.00
2019-05-22T16:30:23.631Z,40.00
2019-05-22T16:32:52.904Z,40.50
2019-05-22T16:35:20.079Z,40.70
2019-05-22T16:37:47.705Z,40.00
2019-05-22T16:40:15.535Z,40.30
2019-05-22T16:42:42.982Z,40.70
2019-05-22T16:45:10.558Z,41.40
2019-05-22T16:47:37.859Z,41.60
2019-05-22T16:50:06.423Z,42.60
2019-05-22T16:52:37.189Z,43.70
2019-05-22T16:55:06.408Z,44.10
2019-05-22T16:57:33.728Z,45.20
2019-05-22T17:00:01.605Z,45.90
2019-05-22T17:02:30.057Z,46.70
2019-05-22T17:04:57.806Z,48.10
2019-05-22T17:07:28.143Z,48.00
2019-05-22T17:09:54.447Z,49.40
2019-05-22T17:12:22.702Z,49.90
2019-05-22T17:14:51.161Z,51.10
2019-05-22T17:17:18.415Z,51.90
2019-05-22T17:19:47.059Z,51.80
2019-05-22T17:22:15.493Z,52.60
2019-05-22T17:24:43.580Z,51.80
2019-05-22T17:27:14.019Z,51.20
2019-05-22T17:29:49.821Z,52.40
2019-05-22T17:32:17.363Z,52.80
2019-05-22T17:34:44.495Z,53.10
2019-05-22T17:37:15.123Z,52.80
2019-05-22T17:39:45.888Z,53.50
2019-05-22T17:42:15.449Z,54.10
2019-05-22T17:44:47.033Z,53.80
2019-05-22T17:47:15.692Z,54.90
2019-05-22T17:49:43.672Z,54.90
2019-05-22T17:52:13.067Z,55.50
2019-05-22T17:54:41.642Z,55.60
2019-05-22T17:57:09.884Z,55.80
2019-05-22T17:59:37.792Z,56.10
2019-05-22T18:02:07.644Z,56.00
2019-05-22T18:04:35.409Z,56.80
2019-05-22T18:07:03.829Z,56.90
2019-05-22T18:09:31.402Z,57.20
2019-05-22T18:11:59.292Z,57.30
2019-05-22T18:14:27.634Z,57.40
2019-05-22T18:16:54.998Z,58.30
2019-05-22T18:19:22.546Z,58.70
2019-05-22T18:21:50.254Z,58.80
2019-05-22T18:24:18.074Z,59.50
2019-05-22T18:26:45.080Z,59.60
2019-05-22T18:29:12.822Z,59.70
2019-05-22T18:31:40.227Z,60.30
2019-05-22T18:34:07.988Z,60.60
2019-05-22T18:36:36.528Z,60.20
2019-05-22T18:39:06.040Z,61.20
2019-05-22T18:41:33.528Z,60.60
2019-05-22T18:44:01.133Z,61.20
2019-05-22T18:46:28.184Z,61.50
2019-05-22T18:48:55.679Z,62.50
2019-05-22T18:51:23.181Z,62.80
2019-05-22T18:53:50.624Z,63.70
2019-05-22T18:56:17.853Z,63.60
2019-05-22T18:58:45.729Z,63.90
2019-05-22T19:01:16.227Z,65.30
2019-05-22T19:03:42.334Z,66.00
2019-05-22T19:06:10.858Z,66.00
2019-05-22T19:08:38.017Z,66.00
2019-05-22T19:11:05.580Z,66.70
2019-05-22T19:13:32.811Z,67.20
2019-05-22T19:16:00.283Z,67.40
2019-05-22T19:18:27.688Z,67.90
2019-05-22T19:20:54.810Z,68.50
2019-05-22T19:23:21.989Z,69.60
2019-05-22T19:25:51.552Z,70.20
2019-05-22T19:28:18.909Z,70.50
2019-05-22T19:30:47.085Z,71.10
2019-05-22T19:33:16.293Z,71.60
2019-05-22T19:35:44.077Z,72.50
2019-05-22T19:38:11.927Z,73.10
2019-05-22T19:40:39.233Z,74.50
2019-05-22T19:43:07.028Z,75.30
2019-05-22T19:45:35.016Z,76.30
2019-05-22T19:48:02.173Z,76.60
2019-05-22T19:50:30.628Z,77.30
2019-05-22T19:52:58.276Z,77.30
2019-05-22T19:55:28.639Z,77.50
2019-05-22T19:57:56.482Z,77.80
2019-05-22T20:00:24.624Z,78.00
2019-05-22T20:02:53.097Z,78.30
2019-05-22T20:05:20.997Z,79.00
2019-05-22T20:07:48.571Z,80.20
2019-05-22T20:10:18.240Z,80.70
2019-05-22T20:12:45.928Z,81.70
2019-05-22T20:15:14.450Z,82.40
2019-05-22T20:17:43.401Z,83.10
2019-05-22T20:20:12.068Z,83.50
2019-05-22T20:22:40.230Z,83.70
2019-05-22T20:25:08.975Z,83.50
2019-05-22T20:27:37.955Z,83.70
2019-05-22T20:30:07.908Z,83.80
2019-05-22T20:32:36.765Z,84.10
2019-05-22T20:35:05.192Z,84.30
2019-05-22T20:37:34.053Z,84.90
2019-05-22T20:40:01.788Z,85.40
2019-05-22T20:42:31.273Z,85.40
2019-05-22T20:44:58.638Z,86.20
2019-05-22T20:47:26.253Z,87.20
2019-05-22T20:49:54.220Z,87.80
2019-05-22T20:52:22.243Z,88.30
2019-05-22T20:54:51.149Z,88.50
2019-05-22T20:57:20.265Z,88.20
2019-05-22T20:59:49.585Z,88.00
2019-05-22T21:02:17.896Z,88.10
2019-05-22T21:04:45.596Z,88.30
2019-05-22T21:07:16.330Z,88.30
2019-05-22T21:09:44.172Z,88.00
2019-05-22T21:12:13.258Z,88.20
2019-05-22T21:14:41.284Z,88.60
2019-05-22T21:17:09.129Z,88.70
2019-05-22T21:19:36.943Z,88.90
2019-05-22T21:22:04.460Z,89.10
2019-05-22T21:24:35.974Z,89.50
2019-05-22T21:27:01.708Z,89.90
2019-05-22T21:29:30.223Z,90.10
2019-05-22T21:31:59.512Z,90.40
2019-05-22T21:34:26.713Z,89.90
2019-05-22T21:36:54.494Z,89.70
2019-05-22T21:39:23.067Z,90.30
2019-05-22T21:41:50.954Z,90.60
2019-05-22T21:44:18.634Z,91.10
2019-05-22T21:46:46.032Z,91.30
2019-05-22T21:49:14.988Z,91.40
2019-05-22T21:51:42.806Z,91.60
2019-05-22T21:54:11.368Z,91.50
2019-05-22T21:56:39.663Z,91.50
2019-05-22T21:59:09.097Z,91.70
2019-05-22T22:01:54.109Z,91.80
2019-05-22T22:04:26.814Z,91.90
2019-05-22T22:06:54.561Z,92.10
2019-05-22T22:09:21.949Z,92.20
2019-05-22T22:11:50.318Z,92.30
2019-05-22T22:14:18.593Z,92.20
2019-05-22T22:16:46.364Z,92.00
2019-05-22T22:19:16.223Z,92.30
2019-05-22T22:21:44.255Z,92.30
2019-05-22T22:24:11.878Z,92.20
2019-05-22T22:26:39.342Z,92.40
2019-05-22T22:29:07.472Z,92.50
2019-05-22T22:31:35.862Z,92.40
2019-05-22T22:34:12.658Z,92.30
2019-05-22T22:36:40.512Z,92.60
2019-05-22T22:39:11.191Z,92.80
2019-05-22T22:41:40.561Z,92.80
2019-05-22T22:44:09.592Z,93.00
2019-05-22T22:46:45.444Z,92.70
2019-05-22T22:49:16.642Z,92.80
2019-05-22T22:51:46.810Z,93.10
2019-05-22T22:54:14.625Z,93.30
2019-05-22T22:56:43.344Z,93.10
2019-05-22T22:59:11.066Z,93.50
2019-05-22T23:01:40.583Z,93.60
2019-05-22T23:04:09.785Z,93.50
2019-05-22T23:06:38.270Z,93.30
2019-05-22T23:09:07.616Z,93.00
2019-05-22T23:11:37.035Z,92.80
2019-05-22T23:14:05.037Z,92.70
2019-05-22T23:16:32.157Z,93.20
2019-05-22T23:19:35.260Z,93.10
2019-05-22T23:22:04.995Z,93.20
2019-05-22T23:24:35.006Z,93.30
2019-05-22T23:27:03.234Z,93.30
2019-05-22T23:29:32.134Z,93.30
2019-05-22T23:32:02.161Z,93.40
2019-05-22T23:34:30.172Z,93.50
2019-05-22T23:36:59.184Z,93.50
2019-05-22T23:39:28.888Z,93.50
2019-05-22T23:42:00.367Z,93.60
2019-05-22T23:44:28.305Z,93.80
2019-05-22T23:46:56.434Z,93.60
2019-05-22T23:49:23.596Z,93.90
2019-05-22T23:51:50.930Z,94.00
2019-05-22T23:54:19.834Z,93.70
2019-05-22T23:56:48.909Z,93.70
2019-05-22T23:59:16.710Z,93.70
